Time;durP1;ratioP1;P1;durP2;ratioP2;P2;SDS_P1;SDS_P2;PMS_P1;PMS_P2;Temp;Humidity;BMP_temperature;BMP_pressure;BME280_temperature;BME280_humidity;BME280_pressure;Samples;Min_cycle;Max_cycle;Signal;HPM_P1;HPM_P2
2022/10/21 00:14:38;;;;;;;9.00;3.17;;;20.60;71.60;;;;;;5096903;27;20435;-71
2022/10/21 00:17:05;;;;;;;12.52;3.00;;;20.80;72.40;;;;;;5061527;28;20498;-71
2022/10/21 00:19:31;;;;;;;13.40;3.58;;;20.80;72.20;;;;;;5063839;28;20013;-71
2022/10/21 00:21:57;;;;;;;15.35;3.47;;;20.80;71.80;;;;;;5066552;28;20021;-71
2022/10/21 00:24:24;;;;;;;8.80;3.25;;;20.90;71.80;;;;;;5061683;28;20033;-71
2022/10/21 00:26:50;;;;;;;17.27;3.45;;;20.90;71.60;;;;;;5064704;28;20025;-71
2022/10/21 00:29:17;;;;;;;10.52;3.45;;;20.90;71.40;;;;;;5063532;28;20053;-71
2022/10/21 00:31:43;;;;;;;14.38;3.50;;;20.90;71.50;;;;;;5067485;28;20027;-72
2022/10/21 00:34:10;;;;;;;17.00;6.50;;;20.90;71.50;;;;;;5061195;28;20067;-71
2022/10/21 00:36:36;;;;;;;9.57;2.40;;;20.90;71.30;;;;;;5064367;28;20025;-71
2022/10/21 00:39:03;;;;;;;9.70;2.63;;;20.90;71.10;;;;;;5063407;28;20028;-70
2022/10/21 00:41:29;;;;;;;17.17;3.13;;;20.90;70.70;;;;;;5063639;28;20066;-71
2022/10/21 00:44:07;;;;;;;13.43;4.00;;;20.90;70.60;;;;;;5062511;28;20036;-71
2022/10/21 00:46:45;;;;;;;13.55;3.55;;;20.90;70.60;;;;;;5064621;28;20017;-71
2022/10/21 00:49:20;;;;;;;13.35;3.22;;;20.90;71.00;;;;;;5062535;28;20497;-71
2022/10/21 00:51:51;;;;;;;18.40;5.63;;;20.90;71.00;;;;;;5064650;28;20075;-71
2022/10/21 00:54:21;;;;;;;16.38;3.58;;;20.90;71.40;;;;;;5062112;28;20113;-71
2022/10/21 00:56:48;;;;;;;9.55;4.18;;;20.90;71.40;;;;;;5064712;28;20463;-71
2022/10/21 00:59:16;;;;;;;12.35;3.60;;;20.90;71.60;;;;;;5061597;28;20013;-71
2022/10/21 01:01:42;;;;;;;12.68;3.28;;;20.90;71.80;;;;;;5064107;28;20121;-71
2022/10/21 01:04:09;;;;;;;12.40;3.83;;;20.90;72.10;;;;;;5060373;28;20024;-71
2022/10/21 01:06:36;;;;;;;16.05;3.97;;;20.90;72.20;;;;;;5065369;28;20499;-71
2022/10/21 01:09:04;;;;;;;14.93;5.68;;;20.90;72.30;;;;;;5063188;28;20031;-71
2022/10/21 01:11:35;;;;;;;11.65;3.72;;;20.80;72.30;;;;;;5064257;28;20025;-71
2022/10/21 01:14:34;;;;;;;12.57;3.50;;;20.80;72.50;;;;;;5072532;28;20555;-71
2022/10/21 01:17:55;;;;;;;7.90;3.97;;;20.80;72.60;;;;;;5062909;28;20036;-71
2022/10/21 01:20:40;;;;;;;15.32;3.97;;;20.70;72.60;;;;;;5038387;28;20036;-71
2022/10/21 01:23:33;;;;;;;16.15;3.10;;;20.70;72.60;;;;;;5069961;28;20044;-71
2022/10/21 01:26:21;;;;;;;8.23;2.85;;;20.70;72.90;;;;;;5066268;28;20112;-71
2022/10/21 01:28:54;;;;;;;11.77;4.10;;;20.70;72.90;;;;;;5070447;28;20025;-71
2022/10/21 01:31:26;;;;;;;18.42;6.25;;;20.70;72.90;;;;;;5073859;28;20109;-71
2022/10/21 01:34:27;;;;;;;11.68;4.60;;;20.70;72.90;;;;;;5065542;28;20033;-71
2022/10/21 01:37:01;;;;;;;13.50;3.45;;;20.70;72.90;;;;;;5047557;28;20040;-70
2022/10/21 01:39:44;;;;;;;26.52;5.05;;;20.70;73.10;;;;;;5071589;28;20024;-70
2022/10/21 01:42:16;;;;;;;22.55;4.10;;;20.70;73.30;;;;;;5067133;28;20044;-70
2022/10/21 01:44:55;;;;;;;13.15;4.38;;;20.70;73.80;;;;;;5068095;28;20024;-71
2022/10/21 01:47:24;;;;;;;13.73;4.20;;;20.70;73.80;;;;;;5069429;28;20020;-71
2022/10/21 01:50:20;;;;;;;13.80;3.60;;;20.70;73.80;;;;;;5071575;28;20479;-71
2022/10/21 01:52:50;;;;;;;11.57;3.22;;;20.60;73.70;;;;;;5065632;28;20040;-71
2022/10/21 01:55:20;;;;;;;18.67;5.70;;;20.60;74.50;;;;;;5067776;28;20574;-71
2022/10/21 01:58:00;;;;;;;12.25;2.90;;;20.60;73.80;;;;;;5066112;28;20047;-71
2022/10/21 02:00:28;;;;;;;11.60;3.20;;;20.60;73.80;;;;;;5069465;28;20041;-71
2022/10/21 02:02:56;;;;;;;9.68;3.15;;;20.60;73.70;;;;;;5069128;28;20036;-71
2022/10/21 02:05:29;;;;;;;11.57;4.47;;;20.60;73.70;;;;;;5069683;28;20020;-71
2022/10/21 02:07:55;;;;;;;13.18;3.28;;;20.60;73.60;;;;;;5066140;28;20024;-71
2022/10/21 02:10:25;;;;;;;17.00;3.67;;;20.60;73.50;;;;;;5070668;28;20383;-71
2022/10/21 02:12:55;;;;;;;9.00;3.17;;;20.60;73.40;;;;;;5071247;28;20106;-71
2022/10/21 02:15:24;;;;;;;11.52;4.40;;;20.60;73.50;;;;;;5070421;28;20459;-71
2022/10/21 02:18:01;;;;;;;34.47;5.63;;;20.60;73.40;;;;;;5069038;28;20028;-71
2022/10/21 02:20:31;;;;;;;12.85;3.08;;;20.50;73.80;;;;;;5065145;28;20089;-70
2022/10/21 02:22:57;;;;;;;17.65;4.43;;;20.50;73.90;;;;;;5068622;28;20033;-71
2022/10/21 02:25:31;;;;;;;14.25;3.78;;;20.50;73.80;;;;;;5068133;28;20074;-71
2022/10/21 02:27:57;;;;;;;18.40;4.88;;;20.50;73.80;;;;;;5067388;28;20444;-71
2022/10/21 02:30:24;;;;;;;9.50;3.70;;;20.50;73.70;;;;;;5064053;28;20021;-71
2022/10/21 02:33:04;;;;;;;13.73;4.07;;;20.50;73.80;;;;;;5071125;28;20158;-71
2022/10/21 02:35:48;;;;;;;11.02;4.32;;;20.50;73.70;;;;;;5068873;28;20016;-71
2022/10/21 02:38:48;;;;;;;13.05;3.47;;;20.40;73.60;;;;;;5066174;28;20021;-71
2022/10/21 02:41:20;;;;;;;20.88;4.32;;;20.40;73.60;;;;;;5067034;28;20020;-71
2022/10/21 02:44:01;;;;;;;13.70;3.80;;;20.40;73.80;;;;;;5066082;28;20029;-71
2022/10/21 02:46:39;;;;;;;13.45;3.42;;;20.40;73.70;;;;;;5068754;28;20024;-71
2022/10/21 02:49:06;;;;;;;10.63;3.10;;;20.40;73.80;;;;;;5062889;28;20104;-71
2022/10/21 02:51:33;;;;;;;12.55;3.72;;;20.40;73.80;;;;;;5068633;28;20013;-71
2022/10/21 02:54:00;;;;;;;11.70;3.35;;;20.30;73.90;;;;;;5068785;28;20024;-71
2022/10/21 02:56:27;;;;;;;12.32;4.25;;;20.30;73.80;;;;;;5067972;28;20021;-71
2022/10/21 02:58:54;;;;;;;12.32;3.55;;;20.30;73.80;;;;;;5067315;28;20013;-72
2022/10/21 03:01:20;;;;;;;12.80;3.55;;;20.30;73.90;;;;;;5064647;28;20051;-71
2022/10/21 03:03:46;;;;;;;10.82;3.33;;;20.30;74.00;;;;;;5069108;28;20056;-72
2022/10/21 03:06:13;;;;;;;10.80;3.35;;;20.30;73.90;;;;;;5070065;28;20091;-71
2022/10/21 03:08:39;;;;;;;16.27;4.45;;;20.30;74.00;;;;;;5067037;28;20029;-71
2022/10/21 03:11:06;;;;;;;21.75;3.65;;;20.30;74.50;;;;;;5066941;28;20024;-71
2022/10/21 03:13:32;;;;;;;13.13;3.83;;;20.30;74.20;;;;;;5067523;28;20589;-71
2022/10/21 03:15:59;;;;;;;14.15;4.50;;;20.30;73.90;;;;;;5065634;28;20029;-71
2022/10/21 03:18:25;;;;;;;12.40;4.50;;;20.30;73.60;;;;;;5065342;28;20036;-71
2022/10/21 03:20:52;;;;;;;11.52;3.80;;;20.30;73.50;;;;;;5065708;28;20095;-71
2022/10/21 03:23:19;;;;;;;13.25;5.72;;;20.30;73.30;;;;;;5067859;28;20144;-72
2022/10/21 03:25:46;;;;;;;6.90;2.63;;;20.30;73.20;;;;;;5067173;28;20023;-71
2022/10/21 03:28:13;;;;;;;18.23;2.90;;;20.20;73.10;;;;;;5068792;28;20502;-71
2022/10/21 03:30:39;;;;;;;21.48;4.50;;;20.30;73.10;;;;;;5066956;28;20111;-71
2022/10/21 03:33:06;;;;;;;34.40;9.15;;;20.30;73.20;;;;;;5067244;28;20036;-72
2022/10/21 03:35:32;;;;;;;20.90;6.45;;;20.20;73.70;;;;;;5067316;28;20024;-71
2022/10/21 03:37:58;;;;;;;16.58;5.38;;;20.30;73.70;;;;;;5068705;28;20024;-69
2022/10/21 03:40:28;;;;;;;12.85;4.90;;;20.20;73.40;;;;;;5068252;28;20036;-70
2022/10/21 03:42:58;;;;;;;17.15;3.75;;;20.20;73.20;;;;;;5065643;28;20033;-71
2022/10/21 03:45:25;;;;;;;13.95;4.07;;;20.20;73.00;;;;;;5069802;28;20483;-71
2022/10/21 03:47:52;;;;;;;11.10;2.83;;;20.20;72.90;;;;;;5062166;28;20026;-70
2022/10/21 03:50:27;;;;;;;12.10;4.45;;;20.20;72.80;;;;;;5067258;28;20039;-71
2022/10/21 03:52:53;;;;;;;10.60;3.90;;;20.10;72.80;;;;;;5066245;28;20020;-72
2022/10/21 03:55:22;;;;;;;10.30;3.00;;;20.10;72.80;;;;;;5068188;28;20060;-72
2022/10/21 03:57:49;;;;;;;13.95;4.93;;;20.10;72.90;;;;;;5067136;28;20028;-72
2022/10/21 04:00:16;;;;;;;11.57;3.85;;;20.10;72.90;;;;;;5065987;28;20499;-73
2022/10/21 04:02:43;;;;;;;16.15;4.50;;;20.10;72.90;;;;;;5068245;28;20514;-70
2022/10/21 04:05:10;;;;;;;18.08;3.97;;;20.10;73.00;;;;;;5065137;28;20013;-71
2022/10/21 04:07:39;;;;;;;14.95;3.67;;;20.10;73.30;;;;;;5067248;28;20406;-71
2022/10/21 04:10:06;;;;;;;15.70;3.47;;;20.00;75.00;;;;;;5067799;28;20028;-69
2022/10/21 04:12:33;;;;;;;14.15;3.08;;;19.90;75.60;;;;;;5067162;28;20044;-69
2022/10/21 04:14:59;;;;;;;47.10;8.75;;;19.90;75.00;;;;;;5066567;28;20031;-71
2022/10/21 04:17:27;;;;;;;22.88;8.98;;;19.90;74.90;;;;;;5068194;28;20016;-72
2022/10/21 04:19:53;;;;;;;25.00;12.75;;;20.00;75.30;;;;;;5067056;28;20021;-72
2022/10/21 04:22:20;;;;;;;19.38;8.25;;;20.00;75.70;;;;;;5068997;28;20486;-71
2022/10/21 04:24:46;;;;;;;21.77;6.82;;;20.00;75.60;;;;;;5067685;28;20071;-70
2022/10/21 04:27:12;;;;;;;14.30;4.97;;;19.90;75.20;;;;;;5064946;28;20029;-72
2022/10/21 04:29:39;;;;;;;11.35;4.10;;;20.00;75.10;;;;;;5066578;28;20033;-72
2022/10/21 04:32:05;;;;;;;72.80;48.78;;;20.00;74.90;;;;;;5066566;28;20060;-71
2022/10/21 04:34:32;;;;;;;66.85;48.88;;;20.00;74.80;;;;;;5067995;28;20032;-74
2022/10/21 04:36:58;;;;;;;41.28;25.08;;;20.00;74.80;;;;;;5064710;28;20379;-73
2022/10/21 04:39:25;;;;;;;20.67;13.02;;;20.00;74.80;;;;;;5064158;28;20020;-75
2022/10/21 04:41:51;;;;;;;14.80;7.05;;;20.00;74.60;;;;;;5066789;28;20029;-74
2022/10/21 04:44:18;;;;;;;17.95;7.50;;;20.00;74.60;;;;;;5064992;28;20025;-74
2022/10/21 04:46:44;;;;;;;25.30;7.95;;;20.00;74.60;;;;;;5063672;28;20036;-71
2022/10/21 04:49:11;;;;;;;13.80;5.65;;;20.00;74.70;;;;;;5067377;28;20482;-72
2022/10/21 04:51:37;;;;;;;15.85;3.97;;;20.00;74.80;;;;;;5066509;28;20074;-71
2022/10/21 04:54:04;;;;;;;18.20;4.10;;;20.00;75.60;;;;;;5070464;28;20024;-72
2022/10/21 04:56:30;;;;;;;18.63;5.18;;;20.00;76.40;;;;;;5068982;28;20294;-71
2022/10/21 04:58:57;;;;;;;16.77;4.10;;;20.00;76.90;;;;;;5071652;28;20036;-72
2022/10/21 05:01:23;;;;;;;8.57;2.70;;;20.00;77.40;;;;;;5070499;28;20016;-71
2022/10/21 05:03:50;;;;;;;13.27;3.60;;;20.00;77.30;;;;;;5068445;28;20546;-72
2022/10/21 05:06:16;;;;;;;13.15;4.65;;;20.00;77.30;;;;;;5067209;28;20475;-71
2022/10/21 05:08:43;;;;;;;21.10;3.85;;;20.00;77.10;;;;;;5070521;28;20369;-72
2022/10/21 05:11:49;;;;;;;7.70;2.58;;;20.00;77.10;;;;;;5069889;28;20811;-71
2022/10/21 05:14:55;;;;;;;16.35;2.90;;;20.00;76.90;;;;;;5069025;28;20104;-71
2022/10/21 05:18:01;;;;;;;5.60;2.58;;;20.00;76.80;;;;;;5068500;28;20017;-71
2022/10/21 05:20:27;;;;;;;10.55;2.72;;;20.00;76.90;;;;;;5069187;28;20023;-71
2022/10/21 05:22:54;;;;;;;10.60;3.67;;;20.00;76.80;;;;;;5069549;28;20491;-71
2022/10/21 05:25:21;;;;;;;12.77;3.45;;;20.00;76.70;;;;;;5070513;28;20021;-71
2022/10/21 05:27:47;;;;;;;9.07;2.63;;;20.00;76.80;;;;;;5064652;28;20024;-71
2022/10/21 05:30:14;;;;;;;11.77;4.45;;;20.00;76.90;;;;;;5069738;28;20020;-71
2022/10/21 05:32:41;;;;;;;10.25;3.10;;;20.10;76.90;;;;;;5069403;28;20059;-72
2022/10/21 05:35:07;;;;;;;12.18;3.40;;;20.10;77.00;;;;;;5085497;28;20032;-72
2022/10/21 05:37:34;;;;;;;9.88;2.78;;;20.10;76.90;;;;;;5067748;28;20036;-72
2022/10/21 05:40:03;;;;;;;11.02;2.65;;;20.10;76.80;;;;;;5070918;28;20453;-73
2022/10/21 05:42:29;;;;;;;16.10;4.35;;;20.10;76.80;;;;;;5069659;28;20020;-72
2022/10/21 05:44:56;;;;;;;13.40;2.47;;;20.10;76.80;;;;;;5069479;28;20091;-73
2022/10/21 05:47:22;;;;;;;16.60;3.63;;;20.10;76.80;;;;;;5070232;28;20383;-72
2022/10/21 05:49:50;;;;;;;13.73;3.33;;;20.10;76.80;;;;;;5070717;28;20027;-73
2022/10/21 05:52:16;;;;;;;8.10;3.50;;;20.20;76.70;;;;;;5071367;28;20490;-73
2022/10/21 05:54:42;;;;;;;16.00;3.38;;;20.20;76.60;;;;;;5066875;28;20028;-73
2022/10/21 05:57:09;;;;;;;12.70;4.40;;;20.20;76.50;;;;;;5068008;28;20025;-71
2022/10/21 05:59:35;;;;;;;14.90;3.92;;;20.30;76.60;;;;;;5072747;28;20364;-72
2022/10/21 06:02:02;;;;;;;11.48;3.10;;;20.20;76.20;;;;;;5067427;28;20040;-71
2022/10/21 09:12:02;;;;;;;6.18;1.73;;;22.50;66.50;;;;;;6162365;23;20021;-71
2022/10/21 09:15:00;;;;;;;17.20;2.88;;;22.60;66.20;;;;;;6189333;23;20019;-72
2022/10/21 09:17:54;;;;;;;8.52;2.90;;;22.60;66.00;;;;;;6187935;23;20001;-72
2022/10/21 09:20:46;;;;;;;15.82;4.57;;;22.60;65.80;;;;;;6188988;23;20434;-72
2022/10/21 09:23:37;;;;;;;19.35;4.60;;;22.60;65.50;;;;;;6182211;23;20294;-71
2022/10/21 09:26:15;;;;;;;12.13;3.28;;;22.70;65.00;;;;;;6181194;23;20298;-71
2022/10/21 09:28:42;;;;;;;14.68;3.88;;;22.70;64.60;;;;;;6182605;23;20008;-71
2022/10/21 09:31:16;;;;;;;7.28;2.70;;;22.70;64.20;;;;;;6181687;23;20340;-71
2022/10/21 09:33:47;;;;;;;30.88;3.22;;;22.70;64.10;;;;;;6181765;23;20095;-72
2022/10/21 09:36:23;;;;;;;20.30;4.13;;;22.80;63.70;;;;;;6182526;23;20024;-71
2022/10/21 09:39:27;;;;;;;18.20;3.03;;;22.80;63.20;;;;;;6181042;23;20005;-71
2022/10/21 09:41:57;;;;;;;31.05;5.50;;;22.90;63.10;;;;;;6181992;23;20440;-71
2022/10/21 09:44:24;;;;;;;19.33;2.88;;;22.90;63.10;;;;;;6182577;23;20085;-72
2022/10/21 09:46:52;;;;;;;17.85;3.85;;;23.00;63.10;;;;;;6181375;23;19997;-71
2022/10/21 09:49:32;;;;;;;11.52;2.30;;;23.00;62.90;;;;;;6182124;23;20004;-71
2022/10/21 09:52:02;;;;;;;13.77;2.78;;;23.10;62.80;;;;;;6180744;23;20009;-71
2022/10/21 09:54:34;;;;;;;20.33;3.20;;;23.10;62.20;;;;;;6182515;23;20003;-72
2022/10/21 09:57:25;;;;;;;15.07;4.28;;;23.10;62.10;;;;;;6181467;23;20024;-71
2022/10/21 10:00:01;;;;;;;42.35;6.07;;;23.20;62.10;;;;;;6180834;23;20536;-72
2022/10/21 10:02:32;;;;;;;12.73;2.60;;;23.20;61.40;;;;;;6181903;23;20092;-71
2022/10/21 10:04:59;;;;;;;13.88;1.95;;;23.20;60.90;;;;;;6180792;23;20036;-71
2022/10/21 10:07:27;;;;;;;13.90;2.50;;;23.20;60.50;;;;;;6182386;23;20076;-72
2022/10/21 10:09:54;;;;;;;7.28;2.08;;;23.30;60.40;;;;;;6180874;23;20156;-71
2022/10/21 10:12:23;;;;;;;6.32;1.70;;;23.30;60.10;;;;;;6181691;23;20114;-72
2022/10/21 10:14:49;;;;;;;8.43;2.20;;;23.30;60.10;;;;;;6182354;23;20001;-71
2022/10/21 10:17:35;;;;;;;7.18;1.92;;;23.40;59.80;;;;;;6180504;23;20043;-71
2022/10/21 10:20:05;;;;;;;7.40;1.73;;;23.40;59.60;;;;;;6181733;23;20001;-72
2022/10/21 10:22:40;;;;;;;16.70;4.35;;;23.40;59.60;;;;;;6180515;23;20011;-71
2022/10/21 10:25:21;;;;;;;;;;;23.50;59.70;;;;;;6182839;23;19997;-72
2022/10/21 10:27:50;;;;;;;10.27;2.15;;;23.50;59.50;;;;;;6182119;23;19955;-71
2022/10/21 10:30:17;;;;;;;20.02;2.30;;;23.60;59.20;;;;;;6180758;23;20055;-71
2022/10/21 10:32:45;;;;;;;11.52;2.35;;;23.60;58.80;;;;;;6181256;23;20005;-71
2022/10/21 10:35:30;;;;;;;7.18;2.03;;;23.60;58.70;;;;;;6180448;23;19997;-72
2022/10/21 10:37:58;;;;;;;6.72;1.88;;;23.60;58.60;;;;;;6182365;23;20360;-71
2022/10/21 10:40:31;;;;;;;16.00;3.15;;;23.70;58.40;;;;;;6180683;23;19997;-71
2022/10/21 10:43:22;;;;;;;10.48;1.88;;;23.70;58.10;;;;;;6179269;23;20324;-72
2022/10/21 10:45:54;;;;;;;19.48;2.75;;;23.80;57.70;;;;;;6181567;23;20425;-72
2022/10/21 10:48:34;;;;;;;8.02;1.73;;;23.80;57.50;;;;;;6181327;23;20366;-72
2022/10/21 10:51:24;;;;;;;21.80;4.10;;;23.80;57.50;;;;;;6181340;23;20070;-71
2022/10/21 10:54:06;;;;;;;12.98;2.35;;;23.90;57.50;;;;;;6181412;23;20004;-72
2022/10/21 10:56:44;;;;;;;23.00;4.63;;;24.00;57.10;;;;;;6180329;23;20432;-71
2022/10/21 10:59:23;;;;;;;12.65;4.18;;;24.00;56.90;;;;;;6181941;23;20332;-72
2022/10/21 11:02:21;;;;;;;8.35;1.92;;;24.00;56.80;;;;;;6180618;23;20579;-72
2022/10/21 11:04:57;;;;;;;16.90;3.25;;;24.10;56.50;;;;;;6174369;23;20022;-72
2022/10/21 11:07:32;;;;;;;10.68;2.60;;;24.10;56.50;;;;;;6181505;23;20018;-71
2022/10/21 11:10:06;;;;;;;14.48;2.78;;;24.10;56.70;;;;;;6180489;23;20066;-72
2022/10/21 11:12:33;;;;;;;11.70;2.30;;;24.20;57.00;;;;;;6181212;23;20059;-72
2022/10/21 11:15:00;;;;;;;10.48;4.10;;;24.20;57.10;;;;;;6180866;23;20321;-72
2022/10/21 11:17:56;;;;;;;6.65;1.50;;;24.20;56.60;;;;;;6180787;23;19997;-71
2022/10/21 11:20:41;;;;;;;5.13;2.45;;;24.30;56.60;;;;;;6181541;23;20061;-71
2022/10/21 11:23:35;;;;;;;17.45;2.80;;;24.30;56.20;;;;;;6180101;23;20424;-72
2022/10/21 11:26:10;;;;;;;11.43;2.17;;;24.30;55.80;;;;;;6180759;23;20076;-72
2022/10/21 11:29:22;;;;;;;7.25;2.15;;;24.30;55.90;;;;;;6181233;23;20467;-72
2022/10/21 11:31:59;;;;;;;12.05;3.20;;;24.40;55.70;;;;;;6157940;23;20286;-72
2022/10/21 11:34:35;;;;;;;7.88;1.67;;;24.40;55.80;;;;;;6181019;23;19997;-72
2022/10/21 11:37:02;;;;;;;8.75;2.42;;;24.40;55.90;;;;;;6181278;23;20368;-72
2022/10/21 11:39:28;;;;;;;19.17;2.90;;;24.50;55.60;;;;;;6180598;23;19997;-71
2022/10/21 11:42:24;;;;;;;11.65;2.28;;;24.60;55.60;;;;;;6180812;23;20005;-72
2022/10/21 11:45:12;;;;;;;8.52;1.45;;;24.60;55.10;;;;;;6171737;23;20076;-72
2022/10/21 11:48:09;;;;;;;6.60;2.28;;;24.60;54.60;;;;;;6181007;23;20348;-71
2022/10/21 11:50:54;;;;;;;9.68;2.97;;;24.60;54.30;;;;;;6168758;23;20043;-71
2022/10/21 11:53:57;;;;;;;7.63;2.03;;;24.60;54.10;;;;;;6179549;23;20732;-71
2022/10/21 11:56:42;;;;;;;7.47;1.33;;;24.60;53.70;;;;;;6180541;23;20043;-72
2022/10/21 11:59:49;;;;;;;9.35;2.35;;;24.60;53.30;;;;;;6181415;23;20005;-71
2022/10/21 12:02:24;;;;;;;11.35;2.72;;;24.70;53.10;;;;;;6180156;23;20001;-71
2022/10/21 12:05:20;;;;;;;7.63;1.45;;;24.70;53.10;;;;;;6181127;23;20032;-72
2022/10/21 12:07:56;;;;;;;;;;;24.70;53.00;;;;;;6181967;23;20309;-72
2022/10/21 12:10:44;;;;;;;7.38;1.95;;;24.70;52.70;;;;;;6179306;23;19912;-72
2022/10/21 12:13:16;;;;;;;2.78;1.10;;;24.70;52.50;;;;;;6181118;23;20005;-72
2022/10/21 12:16:08;;;;;;;5.95;1.88;;;24.70;52.30;;;;;;6180054;23;20001;-72
2022/10/21 12:18:41;;;;;;;2.83;0.75;;;24.70;52.80;;;;;;6167424;23;20001;-72
2022/10/21 12:21:14;;;;;;;14.68;3.60;;;24.80;52.10;;;;;;6180962;23;20001;-72
2022/10/21 12:23:41;;;;;;;4.82;1.95;;;24.80;52.20;;;;;;6179805;23;20079;-72
2022/10/21 12:26:29;;;;;;;11.70;2.78;;;24.90;51.80;;;;;;6180952;23;20036;-72
2022/10/21 12:29:24;;;;;;;6.50;1.88;;;24.90;51.40;;;;;;6180637;23;20075;-72
2022/10/21 12:32:11;;;;;;;10.60;1.80;;;24.90;51.30;;;;;;6176181;23;20013;-72
2022/10/21 12:34:38;;;;;;;11.48;2.72;;;24.90;51.10;;;;;;6181056;23;20005;-72
2022/10/21 12:37:43;;;;;;;10.90;2.58;;;24.90;50.90;;;;;;6179645;23;21219;-72
2022/10/21 12:40:14;;;;;;;10.65;2.00;;;24.90;50.70;;;;;;6180166;23;20001;-72
2022/10/21 12:42:57;;;;;;;9.65;2.38;;;24.90;50.60;;;;;;6181065;23;20005;-72
2022/10/21 12:45:30;;;;;;;17.27;3.13;;;25.00;50.30;;;;;;6179847;23;20001;-72
2022/10/21 12:47:57;;;;;;;5.78;1.70;;;24.90;49.40;;;;;;6180493;23;19997;-71
2022/10/21 12:50:32;;;;;;;14.98;2.15;;;25.00;49.40;;;;;;6180523;23;20023;-71
2022/10/21 12:53:30;;;;;;;8.40;2.22;;;24.90;48.60;;;;;;6180163;23;20510;-72
2022/10/21 12:55:59;;;;;;;8.88;2.03;;;25.00;48.60;;;;;;6180167;23;20009;-72
2022/10/21 12:58:38;;;;;;;7.20;1.67;;;24.90;48.10;;;;;;6181423;23;20302;-72
2022/10/21 13:01:06;;;;;;;9.80;1.63;;;25.00;47.90;;;;;;6182610;23;20068;-72
2022/10/21 13:03:45;;;;;;;7.18;1.60;;;25.00;47.90;;;;;;6182742;23;20001;-72
2022/10/21 13:06:12;;;;;;;6.40;1.48;;;25.00;47.60;;;;;;6181754;23;20388;-72
2022/10/21 13:08:53;;;;;;;19.63;2.53;;;25.00;47.80;;;;;;6183119;23;20032;-72
2022/10/21 13:11:21;;;;;;;14.68;2.25;;;25.00;48.10;;;;;;6180678;23;20024;-72
2022/10/21 13:14:20;;;;;;;10.75;1.92;;;25.00;49.00;;;;;;6182558;23;20306;-72
2022/10/21 13:16:46;;;;;;;11.95;2.65;;;24.90;48.40;;;;;;6181927;23;20007;-72
2022/10/21 13:19:15;;;;;;;12.02;1.50;;;24.90;48.40;;;;;;6181850;23;20469;-72
2022/10/21 13:21:47;;;;;;;6.90;1.58;;;24.90;48.30;;;;;;6183135;23;20001;-72
2022/10/21 13:24:31;;;;;;;5.80;1.52;;;24.90;48.10;;;;;;6181656;23;20072;-72
2022/10/21 13:27:03;;;;;;;9.77;1.70;;;24.90;47.70;;;;;;6182385;23;20001;-71
2022/10/21 13:29:43;;;;;;;9.55;2.08;;;24.90;46.50;;;;;;6181755;23;20036;-72
2022/10/21 13:32:18;;;;;;;6.53;1.67;;;24.90;45.80;;;;;;6179820;23;20396;-72
2022/10/21 13:34:50;;;;;;;9.75;2.40;;;24.90;45.50;;;;;;6182069;23;20060;-72
2022/10/21 13:37:30;;;;;;;5.35;1.77;;;24.90;44.80;;;;;;6181162;23;20028;-72
2022/10/21 13:40:01;;;;;;;9.07;1.60;;;24.90;44.40;;;;;;6182701;23;20436;-71
2022/10/21 13:42:39;;;;;;;12.40;2.22;;;24.80;44.60;;;;;;6181809;23;20005;-72
2022/10/21 13:45:35;;;;;;;4.13;1.52;;;24.70;44.20;;;;;;6179855;23;20005;-71
2022/10/21 13:48:27;;;;;;;5.03;1.23;;;24.70;44.60;;;;;;6182385;23;20059;-72
2022/10/21 13:50:54;;;;;;;9.05;1.20;;;24.70;45.30;;;;;;6176967;23;20021;-72
2022/10/21 13:53:34;;;;;;;10.35;1.70;;;24.60;45.60;;;;;;6181679;23;20036;-72
2022/10/21 13:56:08;;;;;;;8.05;1.17;;;24.60;45.90;;;;;;6182206;23;20079;-72
2022/10/21 13:58:38;;;;;;;9.45;1.65;;;24.60;46.30;;;;;;6180684;23;20001;-72
2022/10/21 14:01:14;;;;;;;6.75;1.95;;;24.60;46.10;;;;;;6182392;23;20005;-72
2022/10/21 16:20:37;;;;;;;24.95;2.42;;;22.90;55.80;;;;;;6287449;22;1822913;-70
2022/10/21 16:23:03;;;;;;;16.98;3.55;;;23.00;57.00;;;;;;6366796;22;20478;-72
2022/10/21 16:25:32;;;;;;;14.00;2.55;;;23.00;57.20;;;;;;6371517;22;20622;-71
2022/10/21 16:28:38;;;;;;;6.45;2.17;;;23.00;57.20;;;;;;6373773;22;20004;-70
2022/10/21 16:31:44;;;;;;;15.07;2.22;;;23.00;57.30;;;;;;6373386;22;20073;-71
2022/10/21 16:34:50;;;;;;;7.25;1.67;;;23.00;57.30;;;;;;6372952;22;20025;-71
2022/10/21 16:37:59;;;;;;;4.25;1.58;;;23.00;57.40;;;;;;6374789;22;20050;-71
2022/10/21 16:41:05;;;;;;;8.85;2.17;;;23.00;57.30;;;;;;6345738;22;20324;-71
2022/10/21 16:44:11;;;;;;;6.63;1.95;;;22.90;57.50;;;;;;6372279;22;20047;-71
2022/10/21 16:47:21;;;;;;;6.88;1.40;;;22.90;57.60;;;;;;6374030;22;19998;-70
2022/10/21 16:50:27;;;;;;;7.00;2.42;;;22.90;57.80;;;;;;6374112;22;20010;-71
2022/10/21 16:53:33;;;;;;;2.30;1.33;;;22.90;58.20;;;;;;6369570;22;20341;-71
2022/10/21 16:56:39;;;;;;;3.90;1.85;;;22.80;58.40;;;;;;6372280;22;20036;-71
2022/10/21 16:59:45;;;;;;;5.38;2.05;;;22.80;58.70;;;;;;6373884;22;20006;-71
2022/10/21 17:02:19;;;;;;;4.85;1.35;;;22.70;59.00;;;;;;6373362;22;19998;-71
2022/10/21 17:04:46;;;;;;;8.10;2.72;;;22.70;59.10;;;;;;6373042;22;20090;-74
2022/10/21 17:07:13;;;;;;;5.28;1.98;;;22.60;58.80;;;;;;6374462;22;20341;-71
2022/10/21 17:10:19;;;;;;;10.60;1.98;;;22.70;58.40;;;;;;6344287;22;20021;-75
2022/10/21 17:13:25;;;;;;;4.93;2.03;;;22.70;58.50;;;;;;6373954;22;20009;-72
2022/10/21 17:15:52;;;;;;;15.30;7.57;;;22.70;58.60;;;;;;6373801;22;20416;-70
2022/10/21 17:18:18;;;;;;;6.95;3.45;;;22.60;58.90;;;;;;6372161;22;20043;-73
2022/10/21 17:20:45;;;;;;;5.28;2.65;;;22.60;59.10;;;;;;6339936;22;20018;-70
2022/10/21 17:23:11;;;;;;;6.30;2.90;;;22.60;59.10;;;;;;6365094;22;20429;-70
2022/10/21 17:25:38;;;;;;;9.10;5.35;;;22.50;59.30;;;;;;6365643;22;20061;-70
2022/10/21 17:28:05;;;;;;;9.82;6.18;;;22.50;59.40;;;;;;6364703;22;20011;-70
2022/10/21 17:30:32;;;;;;;12.30;5.10;;;22.50;59.80;;;;;;6366461;22;20003;-70
2022/10/21 17:32:58;;;;;;;11.90;4.35;;;22.50;59.90;;;;;;6366763;22;20032;-71
2022/10/21 17:35:25;;;;;;;11.32;5.07;;;22.40;60.00;;;;;;6365373;22;20009;-72
2022/10/21 17:37:52;;;;;;;19.52;5.47;;;22.40;60.20;;;;;;6367597;22;20336;-72
2022/10/21 17:40:25;;;;;;;13.55;6.35;;;22.40;60.20;;;;;;6365222;22;20007;-70
2022/10/21 17:42:52;;;;;;;12.40;5.85;;;22.30;60.30;;;;;;6337582;22;20337;-71
2022/10/21 17:45:20;;;;;;;14.93;6.80;;;22.30;60.30;;;;;;6365062;22;20029;-68
2022/10/21 17:47:47;;;;;;;9.15;4.78;;;22.30;60.40;;;;;;6364739;22;20006;-71
2022/10/21 17:50:13;;;;;;;11.82;3.60;;;22.30;60.80;;;;;;6364905;22;19999;-71
2022/10/21 17:52:40;;;;;;;6.07;2.60;;;22.20;60.80;;;;;;6363468;22;20077;-71
2022/10/21 17:55:07;;;;;;;7.15;1.88;;;22.20;60.90;;;;;;6365139;22;20002;-71
2022/10/21 17:57:34;;;;;;;5.68;2.00;;;22.20;61.00;;;;;;6362281;22;20025;-70
2022/10/21 18:00:00;;;;;;;6.00;2.97;;;22.20;61.00;;;;;;6364341;22;20067;-70
2022/10/21 18:02:29;;;;;;;12.32;8.18;;;22.20;61.10;;;;;;6363405;22;19998;-70
2022/10/21 18:04:56;;;;;;;14.38;5.85;;;22.20;61.50;;;;;;6364695;22;20006;-70
2022/10/21 18:07:28;;;;;;;9.27;4.05;;;22.10;61.70;;;;;;6365201;22;19999;-70
2022/10/21 18:09:55;;;;;;;11.88;2.97;;;22.10;61.60;;;;;;6335391;22;20010;-69
2022/10/21 18:12:22;;;;;;;5.05;2.50;;;22.10;61.60;;;;;;6365357;22;20078;-69
2022/10/21 18:14:50;;;;;;;5.97;2.78;;;22.10;61.60;;;;;;6362818;22;20010;-68
2022/10/21 18:17:18;;;;;;;5.55;2.60;;;22.10;61.70;;;;;;6364874;22;19994;-70
2022/10/21 18:19:46;;;;;;;7.32;1.90;;;22.00;61.90;;;;;;6363702;22;20010;-69
2022/10/21 18:22:14;;;;;;;10.02;2.88;;;22.00;62.00;;;;;;6336863;22;20010;-69
2022/10/21 18:24:40;;;;;;;2.22;1.60;;;22.00;62.10;;;;;;6364200;22;20465;-70
2022/10/21 18:27:07;;;;;;;8.63;2.25;;;22.00;62.10;;;;;;6363659;22;20421;-70
2022/10/21 18:29:34;;;;;;;7.60;2.92;;;22.00;62.20;;;;;;6364858;22;20014;-70
2022/10/21 18:32:01;;;;;;;4.18;1.92;;;22.00;62.30;;;;;;6362596;22;20413;-70
2022/10/21 18:34:28;;;;;;;6.70;2.00;;;21.90;62.30;;;;;;6364532;22;20043;-69
2022/10/21 18:36:55;;;;;;;11.45;2.85;;;21.90;62.30;;;;;;6363590;22;20396;-71
2022/10/21 18:39:22;;;;;;;3.88;1.25;;;21.90;62.40;;;;;;6364744;22;19998;-70
2022/10/21 18:41:48;;;;;;;11.60;2.55;;;21.90;62.60;;;;;;6363783;22;20033;-70
2022/10/21 18:44:14;;;;;;;7.70;2.88;;;21.90;62.60;;;;;;6363580;22;20405;-70
2022/10/21 18:46:42;;;;;;;5.40;1.35;;;21.80;62.60;;;;;;6363923;22;20002;-70
2022/10/21 18:49:12;;;;;;;5.07;1.65;;;21.80;62.60;;;;;;6363778;22;20026;-71
2022/10/21 18:51:38;;;;;;;6.68;2.03;;;21.80;62.70;;;;;;6364159;22;20037;-70
2022/10/21 18:54:05;;;;;;;9.82;2.17;;;21.80;62.80;;;;;;6363324;22;19999;-71
2022/10/21 18:56:31;;;;;;;6.53;2.50;;;21.80;63.00;;;;;;6364798;22;20041;-69